createdAt,value
2023-03-03T00:00:39.938Z,1.68
2023-03-03T00:01:39.953Z,1.70
2023-03-03T00:02:39.947Z,1.68
2023-03-03T00:03:39.982Z,1.80
2023-03-03T00:04:39.896Z,1.73
2023-03-03T00:05:39.880Z,1.68
2023-03-03T00:06:39.885Z,1.72
2023-03-03T00:07:39.862Z,1.60
2023-03-03T00:08:39.884Z,1.55
2023-03-03T00:09:39.835Z,1.59
2023-03-03T00:10:39.843Z,1.55
2023-03-03T00:11:39.845Z,1.50
2023-03-03T00:12:39.836Z,1.37
2023-03-03T00:13:39.811Z,1.44
2023-03-03T00:14:39.812Z,1.45
2023-03-03T00:15:39.834Z,1.41
2023-03-03T00:16:39.770Z,1.45
2023-03-03T00:17:39.766Z,1.42
2023-03-03T00:18:39.766Z,1.50
2023-03-03T00:19:39.772Z,1.37
2023-03-03T00:20:39.742Z,1.36
2023-03-03T00:21:39.717Z,1.40
2023-03-03T00:22:39.725Z,1.40
2023-03-03T00:23:39.715Z,1.40
2023-03-03T00:24:39.715Z,1.44
2023-03-03T00:25:39.695Z,1.29
2023-03-03T00:26:39.698Z,1.33
2023-03-03T00:27:39.689Z,1.40
2023-03-03T00:28:39.655Z,1.30
2023-03-03T00:29:39.646Z,1.26
2023-03-03T00:30:39.638Z,1.32
2023-03-03T00:31:39.665Z,1.33
2023-03-03T00:32:39.621Z,1.41
2023-03-03T00:33:39.592Z,1.42
2023-03-03T00:34:39.599Z,1.32
2023-03-03T00:35:39.618Z,1.48
2023-03-03T00:36:39.604Z,1.24
2023-03-03T00:37:39.580Z,1.33
2023-03-03T00:38:39.566Z,1.29
2023-03-03T00:39:39.555Z,1.33
2023-03-03T00:40:39.531Z,1.26
2023-03-03T00:41:39.549Z,1.26
2023-03-03T00:42:39.522Z,1.24
2023-03-03T00:43:39.514Z,1.16
2023-03-03T00:44:39.497Z,1.26
2023-03-03T00:45:39.513Z,1.26
2023-03-03T00:46:39.498Z,1.26
2023-03-03T00:47:39.469Z,1.18
2023-03-03T00:48:39.462Z,1.26
2023-03-03T00:49:39.500Z,1.18
2023-03-03T00:50:39.441Z,1.24
2023-03-03T00:51:39.436Z,1.18
2023-03-03T00:52:39.424Z,1.11
2023-03-03T00:53:39.448Z,1.12
2023-03-03T00:54:39.433Z,1.20
2023-03-03T00:55:39.387Z,1.22
2023-03-03T00:56:39.390Z,1.24
2023-03-03T00:57:39.378Z,1.27
2023-03-03T00:58:39.372Z,1.26
2023-03-03T00:59:39.364Z,1.33
2023-03-03T01:00:39.374Z,1.42
2023-03-03T01:01:39.402Z,1.50
2023-03-03T01:02:39.411Z,1.50
2023-03-03T01:03:39.318Z,1.45
2023-03-03T01:04:39.307Z,1.52
2023-03-03T01:05:39.316Z,1.51
2023-03-03T01:06:39.317Z,1.60
2023-03-03T01:07:39.284Z,1.55
2023-03-03T01:08:39.295Z,1.52
2023-03-03T01:09:39.270Z,1.50
2023-03-03T01:10:39.258Z,1.60
2023-03-03T01:11:39.253Z,1.60
2023-03-03T01:12:39.223Z,1.50
2023-03-03T01:13:39.242Z,1.51
2023-03-03T01:14:39.224Z,1.37
2023-03-03T01:16:54.809Z,1.44
2023-03-03T01:17:54.822Z,1.40
2023-03-03T01:18:56.002Z,1.47
2023-03-03T01:19:55.956Z,1.40
2023-03-03T01:20:55.920Z,1.50
2023-03-03T01:21:55.934Z,1.45
2023-03-03T01:22:55.909Z,1.55
2023-03-03T01:23:55.921Z,1.65
2023-03-03T01:24:56.331Z,1.62
2023-03-03T01:25:55.904Z,1.58
2023-03-03T01:26:55.861Z,1.52
2023-03-03T01:27:55.869Z,1.62
2023-03-03T01:28:55.841Z,1.68
2023-03-03T01:29:55.837Z,1.65
2023-03-03T01:30:55.896Z,1.60
2023-03-03T01:31:55.860Z,1.59
2023-03-03T01:32:55.806Z,1.60
2023-03-03T01:33:55.810Z,1.55
2023-03-03T01:34:55.782Z,1.52
2023-03-03T01:35:55.856Z,1.50
2023-03-03T01:36:55.763Z,1.48
2023-03-03T01:37:55.762Z,1.58
2023-03-03T01:38:55.747Z,1.54
2023-03-03T01:39:55.746Z,1.54
2023-03-03T01:40:55.764Z,1.45
2023-03-03T01:41:55.718Z,1.47
2023-03-03T01:42:55.712Z,1.55
2023-03-03T01:43:55.724Z,1.48
2023-03-03T01:44:55.688Z,1.47
2023-03-03T01:45:55.700Z,1.44
2023-03-03T01:46:55.725Z,1.40
2023-03-03T01:47:55.656Z,1.42
2023-03-03T01:48:55.668Z,1.47
2023-03-03T01:49:55.656Z,1.48
2023-03-03T01:50:55.640Z,1.45
2023-03-03T01:51:55.630Z,1.54
2023-03-03T01:52:55.624Z,1.59
2023-03-03T01:53:55.617Z,1.72
2023-03-03T01:54:55.597Z,1.77
2023-03-03T01:55:55.587Z,1.66
2023-03-03T01:56:55.569Z,1.79
2023-03-03T01:57:55.563Z,1.70
2023-03-03T01:58:55.575Z,1.70
2023-03-03T01:59:55.538Z,1.77
2023-03-03T02:00:55.529Z,1.69
2023-03-03T02:01:55.618Z,1.63
2023-03-03T02:02:55.599Z,1.55
2023-03-03T02:03:55.531Z,1.50
2023-03-03T02:04:55.502Z,1.45
2023-03-03T02:05:55.488Z,1.58
2023-03-03T02:06:55.474Z,1.59
2023-03-03T02:07:55.458Z,1.51
2023-03-03T02:08:55.466Z,1.45
2023-03-03T02:09:56.459Z,1.47
2023-03-03T02:10:55.440Z,1.42
2023-03-03T02:11:55.431Z,1.48
2023-03-03T02:12:55.419Z,1.40
2023-03-03T02:13:55.408Z,1.55
2023-03-03T02:14:55.420Z,1.47
2023-03-03T02:15:55.447Z,1.42
2023-03-03T02:16:55.386Z,1.44
2023-03-03T02:17:55.369Z,1.41
2023-03-03T02:18:55.369Z,1.48
2023-03-03T02:19:55.347Z,1.42
2023-03-03T02:20:55.364Z,1.45
2023-03-03T02:21:55.338Z,1.42
2023-03-03T02:22:55.323Z,1.37
2023-03-03T02:23:55.320Z,1.45
2023-03-03T02:24:55.325Z,1.55
2023-03-03T02:25:56.879Z,1.50
2023-03-03T02:26:55.285Z,1.47
2023-03-03T02:27:55.281Z,1.50
2023-03-03T02:28:55.272Z,1.47
2023-03-03T02:29:55.277Z,1.42
2023-03-03T02:30:55.248Z,1.50
2023-03-03T02:31:55.420Z,1.45
2023-03-03T02:32:55.245Z,1.37
2023-03-03T02:33:55.231Z,1.42
2023-03-03T02:34:55.210Z,1.27
2023-03-03T02:35:55.297Z,1.41
2023-03-03T02:36:55.204Z,1.34
2023-03-03T02:37:55.197Z,1.45
2023-03-03T02:38:55.217Z,1.37
2023-03-03T02:39:55.177Z,1.54
2023-03-03T02:40:55.156Z,1.51
2023-03-03T02:41:55.165Z,1.62
2023-03-03T02:42:55.138Z,1.50
2023-03-03T02:43:55.150Z,1.47
2023-03-03T02:44:55.124Z,1.55
2023-03-03T02:45:55.119Z,1.50
2023-03-03T02:46:55.125Z,1.34
2023-03-03T02:47:55.085Z,1.37
2023-03-03T02:48:55.087Z,1.42
2023-03-03T02:49:55.107Z,1.44
2023-03-03T02:50:55.063Z,1.37
2023-03-03T02:51:55.062Z,1.48
2023-03-03T02:52:55.037Z,1.47
2023-03-03T02:53:55.039Z,1.41
2023-03-03T02:54:55.038Z,1.48
2023-03-03T02:55:55.107Z,1.47
2023-03-03T02:56:55.005Z,1.42
2023-03-03T02:57:55.011Z,1.45
2023-03-03T02:58:54.997Z,1.40
2023-03-03T02:59:54.982Z,1.37
2023-03-03T03:00:54.990Z,1.30
2023-03-03T03:01:54.947Z,1.37
2023-03-03T03:02:54.936Z,1.20
2023-03-03T03:03:54.986Z,1.22
2023-03-03T03:04:54.937Z,1.15
2023-03-03T03:05:54.904Z,1.23
2023-03-03T03:06:54.893Z,1.15
2023-03-03T03:07:54.907Z,1.22
2023-03-03T03:08:54.882Z,1.14
2023-03-03T03:09:54.908Z,1.08
2023-03-03T03:10:54.867Z,1.14
2023-03-03T03:11:54.855Z,1.04
2023-03-03T03:12:54.845Z,1.09
2023-03-03T03:13:54.837Z,1.09
2023-03-03T03:14:54.872Z,1.05
2023-03-03T03:15:54.806Z,0.94
2023-03-03T03:16:54.907Z,1.04
2023-03-03T03:17:54.802Z,1.11
2023-03-03T03:18:54.789Z,1.08
2023-03-03T03:19:54.778Z,1.08
2023-03-03T03:20:54.770Z,1.15
2023-03-03T03:21:54.784Z,1.12
2023-03-03T03:22:54.743Z,1.12
2023-03-03T03:23:54.729Z,1.08
2023-03-03T03:24:54.721Z,1.00
2023-03-03T03:25:54.709Z,1.02
2023-03-03T03:26:54.720Z,1.05
2023-03-03T03:27:54.707Z,1.12
2023-03-03T03:28:54.710Z,1.00
2023-03-03T03:29:54.659Z,1.05
2023-03-03T03:30:54.671Z,1.05
2023-03-03T03:31:54.698Z,1.08
2023-03-03T03:32:54.658Z,1.09
2023-03-03T03:33:54.633Z,1.08
2023-03-03T03:34:54.625Z,1.06
2023-03-03T03:35:54.645Z,1.09
2023-03-03T03:36:54.604Z,1.02
2023-03-03T03:37:54.605Z,1.12
2023-03-03T03:38:54.600Z,0.98
2023-03-03T03:39:54.594Z,1.06
2023-03-03T03:40:54.595Z,1.06
2023-03-03T03:41:54.559Z,1.06
2023-03-03T03:42:54.546Z,1.09
2023-03-03T03:43:54.547Z,1.09
2023-03-03T03:44:54.526Z,1.02
2023-03-03T03:45:54.565Z,1.08
2023-03-03T03:46:54.506Z,1.14
2023-03-03T03:47:54.504Z,1.16
2023-03-03T03:48:54.497Z,1.36
2023-03-03T03:49:55.498Z,1.30
2023-03-03T03:50:54.464Z,1.14
2023-03-03T03:51:54.463Z,1.18
2023-03-03T03:52:54.478Z,1.18
2023-03-03T03:53:54.449Z,1.12
2023-03-03T03:54:54.429Z,1.12
2023-03-03T03:55:54.410Z,1.16
2023-03-03T03:56:54.429Z,0.98
2023-03-03T03:57:54.422Z,1.04
2023-03-03T03:58:54.394Z,1.06
2023-03-03T03:59:54.401Z,1.18
2023-03-03T04:00:54.372Z,1.16
2023-03-03T04:01:54.357Z,1.16
2023-03-03T04:02:54.530Z,1.33
2023-03-03T04:03:54.361Z,1.24
2023-03-03T04:04:54.339Z,1.14
2023-03-03T04:05:54.343Z,1.36
2023-03-03T04:06:54.333Z,1.22
2023-03-03T04:07:54.313Z,1.23
2023-03-03T04:08:54.297Z,1.11
2023-03-03T04:09:54.318Z,1.08
2023-03-03T04:10:54.294Z,0.98
2023-03-03T04:11:54.272Z,0.97
2023-03-03T04:12:54.290Z,1.00
2023-03-03T04:13:54.250Z,0.98
2023-03-03T04:14:54.268Z,1.06
2023-03-03T04:15:54.314Z,1.04
2023-03-03T04:16:54.230Z,0.94
2023-03-03T04:17:54.240Z,1.04
2023-03-03T04:18:54.223Z,0.94
2023-03-03T04:19:54.191Z,1.02
2023-03-03T04:20:54.213Z,0.94
2023-03-03T04:21:54.175Z,0.88
2023-03-03T04:22:54.173Z,0.88
2023-03-03T04:23:54.156Z,0.96
2023-03-03T04:24:54.163Z,0.93
2023-03-03T04:25:54.134Z,0.91
2023-03-03T04:26:54.140Z,1.02
2023-03-03T04:27:54.119Z,0.93
2023-03-03T04:28:54.115Z,0.94
2023-03-03T04:29:54.121Z,0.86
2023-03-03T04:30:54.124Z,0.91
2023-03-03T04:31:54.107Z,0.86
2023-03-03T04:32:54.073Z,0.83
2023-03-03T04:33:54.054Z,0.94
2023-03-03T04:35:05.734Z,0.84
2023-03-03T04:35:56.088Z,0.96
2023-03-03T04:36:54.052Z,0.93
2023-03-03T04:37:54.018Z,0.86
2023-03-03T04:38:54.019Z,0.84
2023-03-03T04:39:54.004Z,0.83
2023-03-03T04:40:53.997Z,0.70
2023-03-03T04:41:54.006Z,0.66
2023-03-03T04:42:53.998Z,0.70
2023-03-03T04:43:53.951Z,0.70
2023-03-03T04:44:53.955Z,0.87
2023-03-03T04:45:54.021Z,0.76
2023-03-03T04:46:53.945Z,0.60
2023-03-03T04:47:53.935Z,0.75
2023-03-03T04:48:53.930Z,0.69
2023-03-03T04:49:53.908Z,0.70
2023-03-03T04:50:53.894Z,0.87
2023-03-03T04:51:53.893Z,0.86
2023-03-03T04:52:53.898Z,0.83
2023-03-03T04:53:53.890Z,0.86
2023-03-03T04:54:53.865Z,0.93
2023-03-03T04:55:53.862Z,0.90
2023-03-03T04:56:53.845Z,0.93
2023-03-03T04:57:53.854Z,0.91
2023-03-03T04:58:53.820Z,0.90
2023-03-03T04:59:53.808Z,0.87
2023-03-03T05:00:53.816Z,0.94
2023-03-03T05:01:53.936Z,0.87
2023-03-03T05:02:53.773Z,0.90
2023-03-03T05:03:53.784Z,0.87
2023-03-03T05:04:53.794Z,0.86
2023-03-03T05:05:53.742Z,0.87
2023-03-03T05:06:53.755Z,0.75
2023-03-03T05:07:53.732Z,0.70
2023-03-03T05:08:53.723Z,0.68
2023-03-03T05:09:53.705Z,0.66
2023-03-03T05:10:53.694Z,0.60
2023-03-03T05:11:53.723Z,0.60
2023-03-03T05:12:53.673Z,0.58
2023-03-03T05:13:53.660Z,0.73
2023-03-03T05:14:53.668Z,0.70
2023-03-03T05:15:53.685Z,0.57
2023-03-03T05:16:53.659Z,0.68
2023-03-03T05:17:53.628Z,0.68
2023-03-03T05:18:53.609Z,0.53
2023-03-03T05:19:54.615Z,0.50
2023-03-03T05:20:53.589Z,0.51
2023-03-03T05:21:53.608Z,0.60
2023-03-03T05:22:53.576Z,0.49
2023-03-03T05:23:53.574Z,0.42
2023-03-03T05:24:53.552Z,0.42
2023-03-03T05:25:53.552Z,0.47
2023-03-03T05:26:53.531Z,0.33
2023-03-03T05:27:53.546Z,0.32
2023-03-03T05:28:53.503Z,0.24
2023-03-03T05:29:54.524Z,0.35
2023-03-03T05:30:53.509Z,0.33
2023-03-03T05:31:54.495Z,0.28
2023-03-03T05:32:53.488Z,0.33
2023-03-03T05:33:53.467Z,0.26
2023-03-03T05:34:53.495Z,0.23
2023-03-03T05:35:53.463Z,0.14
2023-03-03T05:36:53.438Z,0.14
2023-03-03T05:37:53.455Z,0.26
2023-03-03T05:38:53.430Z,0.18
2023-03-03T05:39:53.412Z,0.31
2023-03-03T05:40:53.392Z,0.36
2023-03-03T05:41:53.393Z,0.38
2023-03-03T05:42:53.468Z,0.39
2023-03-03T05:43:53.376Z,0.32
2023-03-03T05:44:53.355Z,0.31
2023-03-03T05:45:53.363Z,0.33
2023-03-03T05:46:53.397Z,0.44
2023-03-03T05:47:53.350Z,0.35
2023-03-03T05:48:53.348Z,0.29
2023-03-03T05:49:53.310Z,0.32
2023-03-03T05:50:53.299Z,0.29
2023-03-03T05:51:53.296Z,0.21
2023-03-03T05:52:53.296Z,0.29
2023-03-03T05:53:56.002Z,0.35
2023-03-03T05:54:53.264Z,0.28
2023-03-03T05:55:53.254Z,0.42
2023-03-03T05:56:53.257Z,0.33
2023-03-03T05:57:53.234Z,0.23
2023-03-03T05:58:53.248Z,0.26
2023-03-03T05:59:53.224Z,0.28
2023-03-03T06:00:53.203Z,0.21
2023-03-03T06:01:53.282Z,0.20
2023-03-03T06:02:53.238Z,0.28
2023-03-03T06:03:53.196Z,0.44
2023-03-03T06:04:53.166Z,0.32
2023-03-03T06:05:53.166Z,0.23
2023-03-03T06:06:53.147Z,0.29
2023-03-03T06:07:53.211Z,0.32
2023-03-03T06:08:54.509Z,0.29
2023-03-03T06:09:53.124Z,0.28
2023-03-03T06:10:53.115Z,0.28
2023-03-03T06:11:53.105Z,0.28
2023-03-03T06:12:53.106Z,0.31
2023-03-03T06:13:53.087Z,0.24
2023-03-03T06:14:53.079Z,0.28
2023-03-03T06:15:53.083Z,0.24
2023-03-03T06:16:53.042Z,0.33
2023-03-03T06:17:53.039Z,0.33
2023-03-03T06:18:53.029Z,0.38
2023-03-03T06:19:53.024Z,0.33
2023-03-03T06:20:53.025Z,0.32
2023-03-03T06:21:53.006Z,0.32
2023-03-03T06:22:52.987Z,0.31
2023-03-03T06:23:53.010Z,0.28
2023-03-03T06:24:53.016Z,0.41
2023-03-03T06:25:52.965Z,0.31
2023-03-03T06:26:52.947Z,0.36
2023-03-03T06:27:52.946Z,0.31
2023-03-03T06:28:52.922Z,0.23
2023-03-03T06:29:52.933Z,0.24
2023-03-03T06:30:52.902Z,0.21
2023-03-03T06:31:54.042Z,0.24
2023-03-03T06:32:52.894Z,0.13
2023-03-03T06:33:52.902Z,0.24
2023-03-03T06:34:52.875Z,0.24
2023-03-03T06:35:52.952Z,0.17
2023-03-03T06:36:52.863Z,0.26
2023-03-03T06:37:52.832Z,0.26
2023-03-03T06:38:52.865Z,0.38
2023-03-03T06:39:52.853Z,0.35
2023-03-03T06:40:52.875Z,0.38
2023-03-03T06:41:52.883Z,0.41
2023-03-03T06:42:52.785Z,0.41
2023-03-03T06:43:52.783Z,0.46
2023-03-03T06:44:52.808Z,0.41
2023-03-03T06:45:52.806Z,0.36
2023-03-03T06:46:52.747Z,0.36
2023-03-03T06:47:52.745Z,0.36
2023-03-03T06:48:52.731Z,0.35
2023-03-03T06:49:52.738Z,0.33
2023-03-03T06:50:52.723Z,0.41
2023-03-03T06:51:52.700Z,0.41
2023-03-03T06:52:52.706Z,0.38
2023-03-03T06:53:52.682Z,0.38
2023-03-03T06:54:52.665Z,0.38
2023-03-03T06:55:52.665Z,0.44
2023-03-03T06:56:52.681Z,0.42
2023-03-03T06:57:52.682Z,0.46
2023-03-03T06:58:52.636Z,0.42
2023-03-03T06:59:52.619Z,0.41
2023-03-03T07:00:52.646Z,0.42
2023-03-03T07:01:52.604Z,0.39
2023-03-03T07:02:52.612Z,0.46
2023-03-03T07:03:52.607Z,0.46
2023-03-03T07:04:52.571Z,0.44
2023-03-03T07:05:52.571Z,0.53
2023-03-03T07:06:52.587Z,0.42
2023-03-03T07:07:52.562Z,0.47
2023-03-03T07:08:52.551Z,0.57
2023-03-03T07:09:52.551Z,0.55
2023-03-03T07:10:52.541Z,0.53
2023-03-03T07:11:52.568Z,0.60
2023-03-03T07:12:52.498Z,0.60
2023-03-03T07:13:52.489Z,0.51
2023-03-03T07:14:52.519Z,0.57
2023-03-03T07:15:52.489Z,0.55
2023-03-03T07:17:24.386Z,0.53
2023-03-03T07:17:52.478Z,0.58
2023-03-03T07:18:52.451Z,0.61
2023-03-03T07:19:52.464Z,0.62
2023-03-03T07:20:52.457Z,0.75
2023-03-03T07:21:52.430Z,0.75
2023-03-03T07:22:52.442Z,0.79
2023-03-03T07:23:52.429Z,0.80
2023-03-03T07:24:53.119Z,0.72
2023-03-03T07:25:52.410Z,0.72
2023-03-03T07:26:52.374Z,0.69
2023-03-03T07:27:52.360Z,0.79
2023-03-03T07:28:52.372Z,0.68
2023-03-03T07:29:52.346Z,0.69
2023-03-03T07:30:52.411Z,0.72
2023-03-03T07:31:52.342Z,0.76
2023-03-03T07:32:52.315Z,0.78
2023-03-03T07:33:52.313Z,0.84
2023-03-03T07:34:52.300Z,0.90
2023-03-03T07:35:52.347Z,0.97
2023-03-03T07:36:52.278Z,1.08
2023-03-03T07:37:52.278Z,0.90
2023-03-03T07:38:52.261Z,0.87
2023-03-03T07:39:52.260Z,0.98
2023-03-03T07:40:52.280Z,0.91
2023-03-03T07:41:52.260Z,0.91
2023-03-03T07:42:52.250Z,0.94
2023-03-03T07:43:52.247Z,1.05
2023-03-03T07:44:52.259Z,0.93
2023-03-03T07:45:52.249Z,0.93
2023-03-03T07:46:52.188Z,0.94
2023-03-03T07:47:52.204Z,0.97
2023-03-03T07:48:52.177Z,1.04
2023-03-03T07:49:52.181Z,1.08
2023-03-03T07:50:52.144Z,1.18
2023-03-03T07:51:52.137Z,1.09
2023-03-03T07:52:52.154Z,1.20
2023-03-03T07:53:52.144Z,1.24
2023-03-03T07:54:52.107Z,1.12
2023-03-03T07:55:52.097Z,1.15
2023-03-03T07:56:52.133Z,1.15
2023-03-03T07:57:52.094Z,1.08
2023-03-03T07:58:52.124Z,1.09
2023-03-03T07:59:52.073Z,1.08
2023-03-03T08:00:52.104Z,1.04
2023-03-03T08:01:52.035Z,0.96
2023-03-03T08:02:52.077Z,1.09
2023-03-03T08:03:52.035Z,1.08
2023-03-03T08:04:52.104Z,1.12
2023-03-03T08:05:52.037Z,1.05
2023-03-03T08:06:52.007Z,1.04
2023-03-03T08:07:52.000Z,1.06
2023-03-03T08:08:51.991Z,1.04
2023-03-03T08:09:52.041Z,0.98
2023-03-03T08:10:51.987Z,1.05
2023-03-03T08:11:51.946Z,1.06
2023-03-03T08:12:52.010Z,1.11
2023-03-03T08:13:51.924Z,1.08
2023-03-03T08:14:51.947Z,1.11
2023-03-03T08:15:51.912Z,1.12
2023-03-03T08:16:51.898Z,1.20
2023-03-03T08:17:51.883Z,1.20
2023-03-03T08:18:51.871Z,1.14
2023-03-03T08:19:51.869Z,1.26
2023-03-03T08:20:51.868Z,1.33
2023-03-03T08:21:51.851Z,1.40
2023-03-03T08:22:51.836Z,1.42
2023-03-03T08:23:51.834Z,1.45
2023-03-03T08:24:51.805Z,1.42
2023-03-03T08:25:51.825Z,1.33
2023-03-03T08:26:51.789Z,1.30
2023-03-03T08:27:51.800Z,1.24
2023-03-03T08:28:51.800Z,1.41
2023-03-03T08:29:51.776Z,1.44
2023-03-03T08:30:54.412Z,1.33
2023-03-03T08:31:52.817Z,1.29
2023-03-03T08:32:51.781Z,1.40
2023-03-03T08:33:51.728Z,1.51
2023-03-03T08:34:51.704Z,1.44
2023-03-03T08:35:51.713Z,1.37
2023-03-03T08:36:51.689Z,1.34
2023-03-03T08:37:51.683Z,1.34
2023-03-03T08:38:51.682Z,1.36
2023-03-03T08:39:51.666Z,1.47
2023-03-03T08:40:51.643Z,1.44
2023-03-03T08:41:51.643Z,1.45
2023-03-03T08:42:51.624Z,1.34
2023-03-03T08:43:51.665Z,1.45
2023-03-03T08:44:51.607Z,1.41
2023-03-03T08:45:51.605Z,1.45
2023-03-03T08:46:51.710Z,1.44
2023-03-03T08:47:51.601Z,1.59
2023-03-03T08:48:51.575Z,1.58
2023-03-03T08:49:51.569Z,1.51
2023-03-03T08:50:51.559Z,1.54
2023-03-03T08:51:51.564Z,1.62
2023-03-03T08:52:51.551Z,1.58
2023-03-03T08:53:51.576Z,1.52
2023-03-03T08:54:51.541Z,1.54
2023-03-03T08:55:51.547Z,1.58
2023-03-03T08:56:51.525Z,1.63
2023-03-03T08:57:51.504Z,1.47
2023-03-03T08:59:02.273Z,1.51
2023-03-03T08:59:53.471Z,1.52
2023-03-03T09:00:52.174Z,1.58
2023-03-03T09:01:51.467Z,1.60
2023-03-03T09:02:51.466Z,1.63
2023-03-03T09:03:51.430Z,1.48
2023-03-03T09:04:51.502Z,1.51
2023-03-03T09:05:51.409Z,1.55
2023-03-03T09:06:51.412Z,1.50
2023-03-03T09:07:51.389Z,1.52
2023-03-03T09:08:51.397Z,1.48
2023-03-03T09:09:51.391Z,1.59
2023-03-03T09:10:51.373Z,1.58
2023-03-03T09:11:51.349Z,1.48
2023-03-03T09:12:51.352Z,1.59
2023-03-03T09:13:51.354Z,1.55
2023-03-03T09:14:51.342Z,1.58
2023-03-03T09:15:51.331Z,1.44
2023-03-03T09:16:51.329Z,1.54
2023-03-03T09:17:51.295Z,1.37
2023-03-03T09:18:51.320Z,1.50
2023-03-03T09:19:51.287Z,1.50
2023-03-03T09:20:51.288Z,1.66
2023-03-03T09:21:51.260Z,1.76
2023-03-03T09:22:51.245Z,1.73
2023-03-03T09:23:52.277Z,1.69
2023-03-03T09:24:51.226Z,1.73
2023-03-03T09:25:51.212Z,1.66
2023-03-03T09:26:51.230Z,1.69
2023-03-03T09:27:51.223Z,1.77
2023-03-03T09:28:51.191Z,1.69
2023-03-03T09:29:51.176Z,1.79
2023-03-03T09:30:51.176Z,1.72
2023-03-03T09:31:51.270Z,1.69
2023-03-03T09:32:51.149Z,1.73
2023-03-03T09:33:51.140Z,1.72
2023-03-03T09:34:51.132Z,1.83
2023-03-03T09:35:51.166Z,1.88
2023-03-03T09:36:51.113Z,1.91
2023-03-03T09:37:51.128Z,1.99
2023-03-03T09:38:51.101Z,1.91
2023-03-03T09:39:51.121Z,1.98
2023-03-03T09:40:51.072Z,2.09
2023-03-03T09:41:51.098Z,2.14
2023-03-03T09:42:51.076Z,2.02
2023-03-03T09:43:51.045Z,1.93
2023-03-03T09:44:51.044Z,2.03
2023-03-03T09:45:51.042Z,1.88
2023-03-03T09:46:51.068Z,1.93
2023-03-03T09:47:51.022Z,1.93
2023-03-03T09:48:50.995Z,1.83
2023-03-03T09:49:51.337Z,1.88
2023-03-03T09:50:51.054Z,2.10
2023-03-03T09:51:51.013Z,2.05
2023-03-03T09:52:50.949Z,2.09
2023-03-03T09:53:50.965Z,2.06
2023-03-03T09:54:50.941Z,2.07
2023-03-03T09:55:50.939Z,2.09
2023-03-03T09:56:50.910Z,2.12
2023-03-03T09:58:04.478Z,2.14
2023-03-03T09:58:51.894Z,2.12
2023-03-03T09:59:50.902Z,2.09
2023-03-03T10:00:50.893Z,2.21
2023-03-03T10:01:50.856Z,2.27
2023-03-03T10:02:53.180Z,2.35
2023-03-03T10:03:52.256Z,2.35
2023-03-03T10:04:50.849Z,2.25
2023-03-03T10:05:50.854Z,2.38
2023-03-03T10:06:50.820Z,2.36
2023-03-03T10:07:50.797Z,2.38
2023-03-03T10:08:50.841Z,2.23
2023-03-03T10:09:50.793Z,2.27
2023-03-03T10:10:51.330Z,2.34
2023-03-03T10:11:50.775Z,2.21
2023-03-03T10:12:50.761Z,2.25
2023-03-03T10:13:50.748Z,2.27
2023-03-03T10:14:50.737Z,2.46
2023-03-03T10:15:50.753Z,2.46
2023-03-03T10:16:50.848Z,2.34
2023-03-03T10:17:50.901Z,2.46
2023-03-03T10:18:51.055Z,2.66
2023-03-03T10:19:51.320Z,2.53
2023-03-03T10:20:52.804Z,2.54
2023-03-03T10:21:52.199Z,2.59
2023-03-03T10:22:50.679Z,2.59
2023-03-03T10:23:50.664Z,2.59
2023-03-03T10:24:50.638Z,2.82
2023-03-03T10:25:50.657Z,2.96
2023-03-03T10:27:05.302Z,2.96
2023-03-03T10:27:52.609Z,2.99
2023-03-03T10:28:50.624Z,2.97
2023-03-03T10:29:50.593Z,3.02
2023-03-03T10:31:04.117Z,2.99
2023-03-03T10:31:52.687Z,3.05
2023-03-03T10:32:50.759Z,3.26
2023-03-03T10:33:50.645Z,3.43
2023-03-03T10:34:50.547Z,3.33
2023-03-03T10:36:05.963Z,3.20
2023-03-03T10:36:52.566Z,3.10
2023-03-03T10:37:50.513Z,3.08
2023-03-03T10:38:50.533Z,3.15
2023-03-03T10:39:50.491Z,3.15
2023-03-03T10:40:50.523Z,3.26
2023-03-03T10:41:50.509Z,3.39
2023-03-03T10:42:50.469Z,3.36
2023-03-03T10:43:50.462Z,3.47
2023-03-03T10:44:50.450Z,3.54
2023-03-03T10:45:50.462Z,3.42
2023-03-03T10:46:50.463Z,3.35
2023-03-03T10:47:50.430Z,3.26
2023-03-03T10:48:50.411Z,3.13
2023-03-03T10:49:50.409Z,3.18
2023-03-03T10:50:50.388Z,3.15
2023-03-03T10:51:50.379Z,3.11
2023-03-03T10:52:50.464Z,3.18
2023-03-03T10:53:50.387Z,3.15
2023-03-03T10:54:50.382Z,3.29
2023-03-03T10:55:50.386Z,3.28
2023-03-03T10:56:53.419Z,3.40
2023-03-03T10:57:51.354Z,3.42
2023-03-03T10:58:50.361Z,3.62
2023-03-03T10:59:50.322Z,3.58
2023-03-03T11:00:50.313Z,3.76
2023-03-03T11:01:50.299Z,3.69
2023-03-03T11:02:50.308Z,3.66
2023-03-03T11:03:50.267Z,3.50
2023-03-03T11:04:50.279Z,3.58
2023-03-03T11:05:50.277Z,3.52
2023-03-03T11:06:50.255Z,3.45
2023-03-03T11:07:50.254Z,3.54
2023-03-03T11:08:50.224Z,3.62
2023-03-03T11:09:50.206Z,3.54
2023-03-03T11:10:50.217Z,3.66
2023-03-03T11:11:50.201Z,3.80
2023-03-03T11:12:50.187Z,4.16
2023-03-03T11:13:50.170Z,4.34
2023-03-03T11:14:50.156Z,4.37
2023-03-03T11:15:50.160Z,4.54
2023-03-03T11:16:50.213Z,4.52
2023-03-03T11:17:50.128Z,4.51
2023-03-03T11:18:50.123Z,4.62
2023-03-03T11:19:50.141Z,4.80
2023-03-03T11:20:50.103Z,4.84
2023-03-03T11:21:50.098Z,4.82
2023-03-03T11:22:50.072Z,4.59
2023-03-03T11:23:50.083Z,4.58
2023-03-03T11:24:50.081Z,4.54
2023-03-03T11:25:50.066Z,4.48
2023-03-03T11:26:50.072Z,4.32
2023-03-03T11:27:50.045Z,4.20
2023-03-03T11:28:50.043Z,4.37
2023-03-03T11:29:50.047Z,4.55
2023-03-03T11:30:50.083Z,4.60
2023-03-03T11:31:50.079Z,4.52
2023-03-03T11:32:50.028Z,4.58
2023-03-03T11:33:49.977Z,4.55
2023-03-03T11:34:49.987Z,4.48
2023-03-03T11:35:49.990Z,4.55
2023-03-03T11:36:49.951Z,4.60
2023-03-03T11:37:49.950Z,4.65
2023-03-03T11:38:49.936Z,4.62
2023-03-03T11:39:49.918Z,4.58
2023-03-03T11:40:49.922Z,4.91
2023-03-03T11:41:49.909Z,4.72
2023-03-03T11:42:49.868Z,4.52
2023-03-03T11:43:50.898Z,4.60
2023-03-03T11:44:49.868Z,4.44
2023-03-03T11:45:49.955Z,4.50
2023-03-03T11:46:49.853Z,4.55
2023-03-03T11:47:49.828Z,4.54
2023-03-03T11:48:49.877Z,4.59
2023-03-03T11:49:49.839Z,4.72
2023-03-03T11:50:49.809Z,4.55
2023-03-03T11:51:49.797Z,4.55
2023-03-03T11:52:49.787Z,4.58
2023-03-03T11:53:49.814Z,4.63
2023-03-03T11:54:49.764Z,4.73
2023-03-03T11:55:49.748Z,4.50
2023-03-03T11:56:49.753Z,4.82
2023-03-03T11:57:49.768Z,5.13
2023-03-03T11:58:49.725Z,5.15
2023-03-03T11:59:49.712Z,5.27
2023-03-03T12:00:50.698Z,5.20
2023-03-03T12:01:49.686Z,5.18
2023-03-03T12:02:49.792Z,5.28
2023-03-03T12:03:49.666Z,5.42
2023-03-03T12:04:49.657Z,5.49
2023-03-03T12:05:49.780Z,5.42
2023-03-03T12:06:49.648Z,5.31
2023-03-03T12:07:49.637Z,5.20
2023-03-03T12:08:49.626Z,5.13
2023-03-03T12:09:49.614Z,5.03
2023-03-03T12:10:49.631Z,4.85
2023-03-03T12:11:50.340Z,4.97
2023-03-03T12:12:49.598Z,4.60
2023-03-03T12:13:49.578Z,4.52
2023-03-03T12:14:49.594Z,4.59
2023-03-03T12:15:49.608Z,4.67
2023-03-03T12:16:49.544Z,4.85
2023-03-03T12:17:50.724Z,4.67
2023-03-03T12:18:49.530Z,4.63
2023-03-03T12:19:49.537Z,4.60
2023-03-03T12:20:49.514Z,4.77
2023-03-03T12:21:49.506Z,4.80
2023-03-03T12:23:04.536Z,5.09
2023-03-03T12:23:51.487Z,5.09
2023-03-03T12:24:49.477Z,4.70
2023-03-03T12:25:49.486Z,4.65
2023-03-03T12:26:49.455Z,4.75
2023-03-03T12:27:49.450Z,4.89
2023-03-03T12:28:49.462Z,4.80
2023-03-03T12:29:49.433Z,4.99
2023-03-03T12:30:49.406Z,4.92
2023-03-03T12:31:49.406Z,5.00
2023-03-03T12:32:49.394Z,4.96
2023-03-03T12:33:49.426Z,4.60
2023-03-03T12:34:49.369Z,4.58
2023-03-03T12:35:50.767Z,4.50
2023-03-03T12:36:50.364Z,4.50
2023-03-03T12:37:49.332Z,4.50
2023-03-03T12:38:49.347Z,4.55
2023-03-03T12:39:49.345Z,4.55
2023-03-03T12:40:49.317Z,4.45
2023-03-03T12:41:49.304Z,4.50
2023-03-03T12:42:49.296Z,4.30
2023-03-03T12:43:49.285Z,4.29
2023-03-03T12:44:49.293Z,4.33
2023-03-03T12:45:49.273Z,4.33
2023-03-03T12:46:49.339Z,4.40
2023-03-03T12:47:49.254Z,4.26
2023-03-03T12:48:49.241Z,4.44
2023-03-03T12:49:57.755Z,4.05
2023-03-03T12:50:50.228Z,4.12
2023-03-03T12:51:49.218Z,4.27
2023-03-03T12:52:49.221Z,4.16
2023-03-03T12:53:49.200Z,4.27
2023-03-03T12:54:49.186Z,4.16
2023-03-03T12:55:49.170Z,4.27
2023-03-03T12:56:49.196Z,4.11
2023-03-03T12:57:49.153Z,4.04
2023-03-03T12:58:49.130Z,4.22
2023-03-03T12:59:49.142Z,4.32
2023-03-03T13:00:49.153Z,4.33
2023-03-03T13:01:49.150Z,4.33
2023-03-03T13:02:49.106Z,4.29
2023-03-03T13:03:55.794Z,4.18
2023-03-03T13:04:51.080Z,4.26
2023-03-03T13:05:49.074Z,4.22
2023-03-03T13:06:49.096Z,4.23
2023-03-03T13:07:49.076Z,4.22
2023-03-03T13:08:50.074Z,4.23
2023-03-03T13:09:49.077Z,4.18
2023-03-03T13:10:49.016Z,4.23
2023-03-03T13:11:49.023Z,4.32
2023-03-03T13:12:49.019Z,4.62
2023-03-03T13:13:49.035Z,4.55
2023-03-03T13:14:48.998Z,4.54
2023-03-03T13:15:55.468Z,4.72
2023-03-03T13:16:50.998Z,4.67
2023-03-03T13:18:20.880Z,4.77
2023-03-03T13:18:48.942Z,4.75
2023-03-03T13:19:48.942Z,4.55